Time;durP1;ratioP1;P1;durP2;ratioP2;P2;SDS_P1;SDS_P2;PMS_P1;PMS_P2;Temp;Humidity;BMP_temperature;BMP_pressure;BME280_temperature;BME280_humidity;BME280_pressure;Samples;Min_cycle;Max_cycle;Signal;HPM_P1;HPM_P2
2021/11/04 00:01:46;;;;;;;17.00;12.45;;;;;;;7.27;84.17;99610.24;1749633;81;25749;-65
2021/11/04 00:04:12;;;;;;;19.35;12.65;;;;;;;7.27;84.15;99611.06;1749729;82;25699;-65
2021/11/04 00:06:38;;;;;;;20.70;12.95;;;;;;;7.27;84.00;99613.75;1749672;81;25424;-65
2021/11/04 00:09:05;;;;;;;17.50;12.13;;;;;;;7.28;84.20;99619.91;1749758;82;27077;-65
2021/11/04 00:11:32;;;;;;;21.37;12.50;;;;;;;7.27;84.04;99602.98;1749638;81;25524;-65
2021/11/04 00:13:58;;;;;;;17.65;12.28;;;;;;;7.28;84.02;99603.22;1749622;81;25677;-65
2021/11/04 00:16:25;;;;;;;18.12;11.78;;;;;;;7.28;84.03;99593.02;1749613;82;27791;-65
2021/11/04 00:18:51;;;;;;;18.87;12.28;;;;;;;7.28;84.01;99590.33;1749698;81;25625;-65
2021/11/04 00:21:17;;;;;;;17.48;12.58;;;;;;;7.26;83.96;99582.55;1749624;82;27460;-65
2021/11/04 00:23:44;;;;;;;20.12;12.98;;;;;;;7.28;84.13;99590.33;1749534;82;25748;-65
2021/11/04 00:26:10;;;;;;;19.30;13.35;;;;;;;7.27;84.12;99597.61;1749766;82;25697;-65
2021/11/04 00:28:37;;;;;;;22.52;12.28;;;;;;;7.27;84.29;99607.02;1749621;81;26303;-65
2021/11/04 00:31:03;;;;;;;17.12;12.13;;;;;;;7.29;84.19;99608.06;1749773;82;25394;-65
2021/11/04 00:33:29;;;;;;;18.05;12.07;;;;;;;7.30;84.35;99612.33;1749681;82;27274;-65
2021/11/04 00:35:56;;;;;;;20.00;12.35;;;;;;;7.30;84.29;99613.67;1749570;82;25641;-65
2021/11/04 00:38:22;;;;;;;18.62;12.65;;;;;;;7.32;84.46;99614.72;1749615;81;26338;-65
2021/11/04 00:40:48;;;;;;;18.48;12.25;;;;;;;7.32;84.28;99608.00;1749757;82;25697;-65
2021/11/04 00:43:15;;;;;;;16.50;11.78;;;;;;;7.34;84.26;99611.17;1749943;81;25429;-65
2021/11/04 00:45:41;;;;;;;19.05;12.30;;;;;;;7.36;84.25;99600.37;1749694;81;27299;-65
2021/11/04 00:48:08;;;;;;;19.10;12.10;;;;;;;7.37;84.20;99607.88;1749870;82;25416;-65
2021/11/04 00:50:34;;;;;;;16.37;11.48;;;;;;;7.39;84.13;99624.51;1749858;82;25385;-65
2021/11/04 00:53:01;;;;;;;18.75;12.07;;;;;;;7.39;84.15;99615.09;1749620;82;25673;-65
2021/11/04 00:55:27;;;;;;;17.65;11.55;;;;;;;7.39;84.17;99616.44;1749924;82;25624;-65
2021/11/04 00:57:54;;;;;;;18.15;12.20;;;;;;;7.40;84.19;99613.45;1749745;82;27381;-65
2021/11/04 01:00:20;;;;;;;17.48;11.18;;;;;;;7.41;84.02;99597.56;1749646;82;25680;-65
2021/11/04 01:02:47;;;;;;;17.92;11.90;;;;;;;7.42;84.02;99589.74;1749814;82;25384;-65
2021/11/04 01:05:14;;;;;;;18.05;11.18;;;;;;;7.43;84.09;99577.86;1749855;82;25689;-65
2021/11/04 01:07:40;;;;;;;19.40;12.20;;;;;;;7.45;84.06;99570.27;1749747;82;25441;-65
2021/11/04 01:10:08;;;;;;;18.15;11.80;;;;;;;7.46;84.10;99567.84;1749947;82;28081;-65
2021/11/04 01:12:35;;;;;;;17.62;12.20;;;;;;;7.47;84.17;99566.75;1749769;82;25574;-65
2021/11/04 01:15:02;;;;;;;16.07;11.83;;;;;;;7.47;84.15;99584.25;1749745;82;25558;-65
2021/11/04 01:17:30;;;;;;;17.65;12.05;;;;;;;7.48;84.19;99591.76;1749834;82;25741;-65
2021/11/04 01:19:56;;;;;;;16.07;12.30;;;;;;;7.47;84.23;99582.90;1749840;82;25430;-65
2021/11/04 01:22:23;;;;;;;18.48;11.78;;;;;;;7.47;84.35;99581.55;1749763;82;27497;-65
2021/11/04 01:24:49;;;;;;;16.02;11.18;;;;;;;7.47;84.31;99578.05;1749768;82;25440;-65
2021/11/04 01:27:16;;;;;;;20.02;12.58;;;;;;;7.46;84.37;99577.26;1749961;82;25701;-65
2021/11/04 01:29:43;;;;;;;17.32;11.28;;;;;;;7.45;84.37;99579.69;1749678;82;25733;-65
2021/11/04 01:32:09;;;;;;;18.32;12.15;;;;;;;7.44;84.32;99574.09;1749925;82;25392;-65
2021/11/04 01:34:36;;;;;;;14.80;11.10;;;;;;;7.45;84.35;99572.18;1749809;82;29450;-65
2021/11/04 01:37:03;;;;;;;17.12;11.28;;;;;;;7.45;84.44;99582.94;1749657;81;25668;-65
2021/11/04 01:39:29;;;;;;;16.67;12.03;;;;;;;7.43;84.25;99587.28;1749852;81;25386;-65
2021/11/04 01:41:56;;;;;;;21.23;12.43;;;;;;;7.44;84.22;99583.50;1749719;82;25688;-66
2021/11/04 01:44:22;;;;;;;16.12;12.43;;;;;;;7.44;84.32;99594.27;1749802;82;25778;-64
2021/11/04 01:46:50;;;;;;;16.55;12.50;;;;;;;7.43;84.17;99595.91;1749853;82;27385;-64
2021/11/04 01:49:17;;;;;;;19.73;12.80;;;;;;;7.42;84.23;99591.62;1749810;82;25722;-64
2021/11/04 01:51:45;;;;;;;17.52;12.30;;;;;;;7.43;84.13;99585.15;1749674;82;25645;-64
2021/11/04 01:54:13;;;;;;;19.92;13.15;;;;;;;7.43;84.14;99589.97;1741731;81;25880;-64
2021/11/04 01:56:41;;;;;;;17.05;12.93;;;;;;;7.45;84.06;99597.74;1741116;82;25653;-64
2021/11/04 01:59:08;;;;;;;18.32;12.95;;;;;;;7.45;84.01;99592.36;1741032;82;27867;-64
2021/11/04 02:01:35;;;;;;;18.07;13.83;;;;;;;7.46;83.99;99586.67;1740917;82;25513;-64
2021/11/04 02:04:30;;;;;;;20.70;13.80;;;;;;;7.47;83.90;99594.19;1720419;82;25447;-64
2021/11/04 02:07:24;;;;;;;18.90;13.05;;;;;;;7.47;83.84;99600.39;1740606;82;25382;-65
2021/11/04 02:10:11;;;;;;;19.15;12.82;;;;;;;7.49;83.79;99593.33;1741046;82;25373;-64
2021/11/04 02:13:02;;;;;;;17.70;12.43;;;;;;;7.48;83.67;99592.55;1739628;82;27521;-64
2021/11/04 02:15:34;;;;;;;17.55;12.18;;;;;;;7.50;83.54;99587.42;1741041;82;25629;-64
2021/11/04 02:18:04;;;;;;;18.42;12.90;;;;;;;7.51;83.45;99593.03;1740294;82;25397;-64
2021/11/04 02:20:58;;;;;;;19.07;13.62;;;;;;;7.49;83.51;99597.37;1741089;82;25663;-64
2021/11/04 02:23:33;;;;;;;17.32;12.43;;;;;;;7.51;83.43;99600.58;1741125;82;25432;-64
2021/11/04 02:26:03;;;;;;;19.50;12.75;;;;;;;7.53;83.33;99602.96;1741133;82;27497;-64
2021/11/04 02:28:31;;;;;;;19.65;13.08;;;;;;;7.53;83.30;99598.92;1740846;82;25682;-64
2021/11/04 02:30:58;;;;;;;16.42;11.97;;;;;;;7.55;83.32;99590.78;1741080;82;25645;-64
2021/11/04 02:33:26;;;;;;;18.30;12.53;;;;;;;7.57;83.22;99591.81;1741085;82;26222;-64
2021/11/04 02:35:54;;;;;;;17.02;11.45;;;;;;;7.59;83.12;99590.95;1740978;82;25641;-64
2021/11/04 02:38:23;;;;;;;15.05;11.00;;;;;;;7.59;82.97;99589.05;1741100;82;27454;-64
2021/11/04 02:40:52;;;;;;;;;;;;;;;7.61;83.04;99577.98;1743595;82;25380;-64
2021/11/04 02:43:20;;;;;;;16.10;11.30;;;;;;;7.63;82.87;99575.80;1741154;82;25473;-64
2021/11/04 02:45:48;;;;;;;16.00;11.60;;;;;;;7.63;82.79;99573.11;1740996;82;25600;-64
2021/11/04 02:48:17;;;;;;;15.95;11.18;;;;;;;7.65;82.75;99566.86;1741139;82;25467;-64
2021/11/04 02:50:48;;;;;;;17.52;12.18;;;;;;;7.65;82.57;99564.17;1741073;82;27313;-64
2021/11/04 02:53:25;;;;;;;21.30;12.53;;;;;;;7.65;82.36;99556.88;1740849;82;25456;-64
2021/11/04 02:55:53;;;;;;;18.12;12.18;;;;;;;7.66;82.22;99549.59;1741085;82;25461;-64
2021/11/04 02:58:21;;;;;;;17.55;11.65;;;;;;;7.69;82.25;99549.55;1740943;82;25709;-64
2021/11/04 03:00:52;;;;;;;17.85;11.12;;;;;;;7.69;82.13;99555.72;1741024;82;25693;-64
2021/11/04 03:03:19;;;;;;;20.65;11.53;;;;;;;7.69;82.08;99566.48;1741068;82;27341;-64
2021/11/04 03:05:46;;;;;;;16.97;12.03;;;;;;;7.70;82.00;99560.57;1740826;82;25737;-64
2021/11/04 03:08:13;;;;;;;14.73;10.65;;;;;;;7.70;81.97;99562.70;1741033;82;25697;-64
2021/11/04 03:10:40;;;;;;;15.93;11.55;;;;;;;7.71;82.02;99559.45;1741006;82;25816;-64
2021/11/04 03:13:07;;;;;;;16.27;11.08;;;;;;;7.70;81.87;99555.19;1741004;82;25558;-64
2021/11/04 03:15:44;;;;;;;15.40;10.88;;;;;;;7.69;81.69;99553.59;1741095;82;27412;-64
2021/11/04 03:18:11;;;;;;;14.83;10.80;;;;;;;7.69;81.69;99550.89;1740985;82;25732;-64
2021/11/04 03:20:39;;;;;;;17.17;11.57;;;;;;;7.66;81.60;99552.28;1740920;82;25681;-64
2021/11/04 03:23:07;;;;;;;18.82;11.25;;;;;;;7.64;81.55;99549.11;1741005;82;26361;-64
2021/11/04 03:25:34;;;;;;;15.13;10.78;;;;;;;7.61;81.40;99550.53;1741094;82;25573;-64
2021/11/04 03:28:03;;;;;;;17.75;11.08;;;;;;;7.59;81.36;99543.30;1740844;82;27479;-65
2021/11/04 03:30:37;;;;;;;13.90;10.45;;;;;;;7.57;81.29;99528.58;1741075;82;25388;-65
2021/11/04 03:33:06;;;;;;;15.80;10.45;;;;;;;7.56;81.34;99526.97;1741023;82;25606;-65
2021/11/04 03:35:36;;;;;;;14.65;10.68;;;;;;;7.55;81.23;99522.70;1740986;82;32812;-65
2021/11/04 03:38:09;;;;;;;16.90;10.80;;;;;;;7.54;81.28;99520.55;1741143;82;25694;-65
2021/11/04 03:40:37;;;;;;;14.10;10.30;;;;;;;7.55;81.29;99520.02;1741021;82;27321;-64
2021/11/04 03:43:06;;;;;;;14.03;10.30;;;;;;;7.55;81.27;99509.25;1740858;82;25570;-64
2021/11/04 03:45:34;;;;;;;14.47;10.37;;;;;;;7.55;81.00;99511.94;1741297;82;25859;-64
2021/11/04 03:48:01;;;;;;;15.38;9.95;;;;;;;7.52;80.93;99505.27;1740941;82;25777;-64
2021/11/04 03:50:30;;;;;;;13.58;9.45;;;;;;;7.54;80.93;99503.61;1740941;82;25738;-64
2021/11/04 03:52:58;;;;;;;13.15;9.45;;;;;;;7.52;80.93;99495.84;1741008;82;30360;-64
2021/11/04 03:55:26;;;;;;;15.35;9.65;;;;;;;7.52;80.89;99478.91;1740998;82;25241;-64
2021/11/04 03:57:53;;;;;;;15.25;10.10;;;;;;;7.51;80.80;99479.48;1740941;82;25395;-65
2021/11/04 04:00:21;;;;;;;13.43;9.43;;;;;;;7.52;80.81;99474.31;1741000;82;25724;-65
2021/11/04 04:02:49;;;;;;;12.33;9.28;;;;;;;7.50;80.66;99467.67;1740923;82;25556;-65
2021/11/04 04:05:29;;;;;;;14.40;10.33;;;;;;;7.47;80.50;99483.34;1741173;82;26983;-65
2021/11/04 04:07:56;;;;;;;14.18;9.50;;;;;;;7.46;80.49;99482.30;1740758;82;25752;-65
2021/11/04 04:10:25;;;;;;;14.10;8.90;;;;;;;7.43;80.39;99478.87;1741032;82;25671;-65
2021/11/04 04:12:53;;;;;;;14.33;10.18;;;;;;;7.39;80.38;99474.66;1740970;82;25607;-65
2021/11/04 04:15:20;;;;;;;12.73;9.20;;;;;;;7.38;80.37;99470.36;1740977;82;25715;-65
2021/11/04 04:17:46;;;;;;;14.50;8.70;;;;;;;7.36;80.43;99477.95;1740931;82;27414;-65
2021/11/04 04:20:13;;;;;;;12.65;8.83;;;;;;;7.36;80.35;99473.13;1740776;82;25456;-65
2021/11/04 04:22:39;;;;;;;14.75;9.13;;;;;;;7.34;80.38;99471.28;1740925;82;25684;-65
2021/11/04 04:25:07;;;;;;;15.48;9.23;;;;;;;7.34;80.41;99476.66;1740933;82;25595;-65
2021/11/04 04:27:34;;;;;;;12.63;9.13;;;;;;;7.33;80.44;99474.53;1740916;82;25560;-65
2021/11/04 04:30:00;;;;;;;13.05;9.38;;;;;;;7.33;80.33;99480.47;1740889;82;28077;-65
2021/11/04 04:32:27;;;;;;;12.45;8.95;;;;;;;7.33;80.37;99475.09;1740989;82;25647;-65
2021/11/04 04:34:53;;;;;;;11.78;8.83;;;;;;;7.32;80.23;99485.59;1740850;82;25630;-65
2021/11/04 04:37:21;;;;;;;13.85;8.93;;;;;;;7.31;80.16;99498.25;1741050;82;25781;-65
2021/11/04 04:39:48;;;;;;;16.27;9.45;;;;;;;7.31;80.13;99486.70;1740897;82;25414;-65
2021/11/04 04:42:14;;;;;;;13.43;9.13;;;;;;;7.29;79.95;99473.56;1740831;82;27370;-65
2021/11/04 04:44:41;;;;;;;12.43;9.25;;;;;;;7.31;79.96;99466.53;1740899;82;27190;-64
2021/11/04 04:47:08;;;;;;;13.40;9.45;;;;;;;7.30;80.07;99454.96;1740979;82;25642;-64
2021/11/04 04:49:34;;;;;;;19.12;9.50;;;;;;;7.29;79.95;99448.80;1740803;82;25658;-64
2021/11/04 04:52:01;;;;;;;13.93;9.40;;;;;;;7.30;80.03;99442.85;1740928;82;25825;-64
2021/11/04 04:54:27;;;;;;;16.02;9.75;;;;;;;7.33;80.00;99447.63;1740892;82;27290;-64
2021/11/04 04:56:54;;;;;;;16.12;9.85;;;;;;;7.32;79.87;99446.05;1740757;82;25777;-64
2021/11/04 04:59:20;;;;;;;14.68;9.45;;;;;;;7.33;79.77;99456.25;1740962;82;25440;-64
2021/11/04 05:01:48;;;;;;;13.60;9.13;;;;;;;7.31;79.65;99451.18;1740854;82;25701;-64
2021/11/04 05:04:17;;;;;;;14.10;8.78;;;;;;;7.32;79.59;99451.97;1740894;82;25630;-64
2021/11/04 05:06:43;;;;;;;14.03;10.13;;;;;;;7.31;79.55;99448.48;1740918;82;27315;-64
2021/11/04 05:09:10;;;;;;;14.43;9.08;;;;;;;7.32;79.39;99453.31;1740840;82;25869;-64
2021/11/04 05:11:38;;;;;;;15.15;10.08;;;;;;;7.32;79.46;99449.27;1740815;82;25720;-64
2021/11/04 05:14:05;;;;;;;11.80;8.50;;;;;;;7.32;79.45;99449.27;1740949;82;25753;-64
2021/11/04 05:16:31;;;;;;;17.90;9.93;;;;;;;7.33;79.29;99448.19;1740910;82;25624;-64
2021/11/04 05:18:58;;;;;;;13.83;8.93;;;;;;;7.31;79.29;99437.73;1740754;82;27416;-64
2021/11/04 05:21:25;;;;;;;15.58;9.60;;;;;;;7.32;79.34;99436.64;1740941;82;25400;-64
2021/11/04 05:23:51;;;;;;;14.93;9.68;;;;;;;7.33;79.22;99431.48;1740914;82;25773;-64
2021/11/04 05:26:17;;;;;;;17.48;10.28;;;;;;;7.34;79.20;99417.47;1740964;82;25612;-64
2021/11/04 05:28:44;;;;;;;16.40;10.25;;;;;;;7.35;79.16;99397.55;1740986;82;25655;-64
2021/11/04 05:31:12;;;;;;;13.85;9.10;;;;;;;7.35;79.04;99393.52;1741121;82;27316;-64
2021/11/04 05:33:39;;;;;;;15.35;9.53;;;;;;;7.36;79.02;99393.20;1740869;82;25886;-64
2021/11/04 05:36:05;;;;;;;14.28;9.88;;;;;;;7.35;78.98;99383.53;1741114;82;25673;-64
2021/11/04 05:38:31;;;;;;;14.25;9.18;;;;;;;7.36;78.95;99383.79;1741021;82;25673;-64
2021/11/04 05:40:58;;;;;;;15.00;9.20;;;;;;;7.37;78.94;99371.94;1740960;82;25607;-65
2021/11/04 05:43:24;;;;;;;15.30;9.38;;;;;;;7.39;78.86;99360.84;1741135;82;27317;-65
2021/11/04 05:45:51;;;;;;;15.15;9.93;;;;;;;7.39;78.83;99361.66;1740969;82;25395;-65
2021/11/04 05:48:17;;;;;;;13.90;8.98;;;;;;;7.41;78.78;99355.97;1741041;82;26508;-65
2021/11/04 05:50:44;;;;;;;14.98;9.75;;;;;;;7.41;78.54;99365.39;1741001;82;25690;-65
2021/11/04 05:53:10;;;;;;;17.30;9.30;;;;;;;7.41;78.57;99362.13;1741092;82;25546;-64
2021/11/04 05:55:37;;;;;;;16.67;10.05;;;;;;;7.41;78.43;99369.42;1748168;82;27260;-64
2021/11/04 05:58:03;;;;;;;16.48;9.40;;;;;;;7.40;78.45;99352.46;1748834;81;25679;-64
2021/11/04 06:00:30;;;;;;;17.62;9.78;;;;;;;7.41;78.42;99359.45;1748998;81;25610;-64
2021/11/04 06:02:56;;;;;;;14.35;9.30;;;;;;;7.41;78.29;99368.86;1748952;82;25718;-64
2021/11/04 06:05:22;;;;;;;14.78;9.83;;;;;;;7.41;78.42;99368.86;1749005;81;25594;-64
2021/11/04 06:07:49;;;;;;;16.87;10.48;;;;;;;7.44;78.19;99372.81;1748939;82;27406;-64
2021/11/04 06:10:16;;;;;;;17.07;9.90;;;;;;;7.42;78.06;99370.99;1719423;82;25572;-64
2021/11/04 06:12:43;;;;;;;16.27;10.15;;;;;;;7.42;78.15;99366.95;1749006;82;25680;-64
2021/11/04 06:15:10;;;;;;;14.50;9.93;;;;;;;7.41;78.11;99358.09;1748986;81;26156;-64
2021/11/04 06:17:37;;;;;;;15.35;9.58;;;;;;;7.44;78.08;99365.55;1748963;82;25636;-63
2021/11/04 06:20:05;;;;;;;17.82;9.85;;;;;;;7.44;77.91;99366.90;1748712;81;27312;-63
2021/11/04 06:22:33;;;;;;;17.70;9.35;;;;;;;7.45;78.03;99357.70;1748210;82;25617;-64
2021/11/04 06:24:59;;;;;;;15.20;9.78;;;;;;;7.46;78.06;99354.48;1748719;81;25940;-63
2021/11/04 06:27:25;;;;;;;14.38;8.95;;;;;;;7.50;78.00;99347.92;1748984;81;25631;-63
2021/11/04 06:29:52;;;;;;;14.83;9.18;;;;;;;7.50;78.00;99343.89;1749062;82;25555;-64
2021/11/04 06:32:19;;;;;;;10.23;7.55;;;;;;;7.54;77.98;99342.15;1748863;81;27374;-64
2021/11/04 06:34:45;;;;;;;17.77;11.03;;;;;;;7.54;77.85;99336.20;1748911;82;25634;-66
2021/11/04 06:37:13;;;;;;;14.25;9.00;;;;;;;7.57;77.90;99341.53;1748970;81;26119;-64
2021/11/04 06:39:40;;;;;;;18.32;10.72;;;;;;;7.60;77.65;99341.70;1748866;82;25617;-64
2021/11/04 06:42:07;;;;;;;16.67;9.53;;;;;;;7.61;77.83;99344.64;1749038;81;25639;-64
2021/11/04 06:44:34;;;;;;;15.68;9.25;;;;;;;7.64;77.73;99345.37;1748983;81;27370;-64
2021/11/04 06:47:02;;;;;;;12.85;8.78;;;;;;;7.66;77.52;99341.81;1748835;81;25790;-64
2021/11/04 06:49:33;;;;;;;17.67;9.45;;;;;;;7.70;77.55;99342.53;1749094;82;25728;-64
2021/11/04 06:52:00;;;;;;;11.95;8.25;;;;;;;7.73;77.65;99340.54;1749056;81;25719;-64
2021/11/04 06:54:27;;;;;;;12.07;8.00;;;;;;;7.76;77.66;99348.78;1748788;81;25641;-64
2021/11/04 06:56:55;;;;;;;14.35;7.58;;;;;;;7.80;77.57;99355.14;1749051;82;27949;-64
2021/11/04 06:59:26;;;;;;;11.50;7.15;;;;;;;7.85;77.67;99343.44;1719352;82;25639;-64
2021/11/04 07:01:56;;;;;;;12.78;7.37;;;;;;;7.90;77.00;99350.56;1748809;82;25582;-64
2021/11/04 07:04:34;;;;;;;11.40;7.37;;;;;;;7.94;76.97;99353.66;1749060;82;25715;-64
2021/11/04 07:07:06;;;;;;;12.40;7.67;;;;;;;7.98;76.89;99339.02;1746120;82;25738;-65
2021/11/04 07:09:37;;;;;;;13.08;8.15;;;;;;;8.03;76.97;99341.00;1748588;82;28008;-65
2021/11/04 07:12:08;;;;;;;13.30;7.78;;;;;;;8.09;77.07;99341.66;1748370;82;25485;-64
2021/11/04 07:14:37;;;;;;;11.68;7.22;;;;;;;8.12;76.72;99338.34;1749091;82;25673;-64
2021/11/04 07:17:12;;;;;;;12.70;7.35;;;;;;;8.17;76.47;99338.19;1748992;81;26159;-64
2021/11/04 07:19:40;;;;;;;12.07;7.03;;;;;;;8.23;76.47;99342.85;1730551;82;25484;-64
2021/11/04 07:22:41;;;;;;;11.83;7.45;;;;;;;8.29;76.43;99342.13;1730580;82;27928;-64
2021/11/04 07:25:15;;;;;;;14.07;7.30;;;;;;;8.33;76.33;99341.75;1730229;82;25639;-64
2021/11/04 07:28:08;;;;;;;10.95;6.75;;;;;;;8.38;76.11;99332.95;1730573;82;25739;-64
2021/11/04 07:30:35;;;;;;;12.47;7.30;;;;;;;8.46;75.81;99317.12;1730471;82;25623;-65
2021/11/04 07:33:04;;;;;;;11.65;7.15;;;;;;;8.52;75.99;99306.42;1730559;82;25416;-65
2021/11/04 07:35:40;;;;;;;11.20;6.92;;;;;;;8.58;76.08;99309.17;1730766;82;28036;-63
2021/11/04 07:38:12;;;;;;;11.50;6.15;;;;;;;8.63;75.78;99304.18;1729583;82;25428;-63
2021/11/04 07:40:39;;;;;;;9.95;6.03;;;;;;;8.69;75.78;99296.17;1730604;82;25649;-63
2021/11/04 07:43:06;;;;;;;9.88;6.28;;;;;;;8.75;75.10;99282.73;1730486;82;25607;-63
2021/11/04 07:45:34;;;;;;;11.28;7.03;;;;;;;8.81;75.12;99286.86;1730372;82;25802;-64
2021/11/04 07:48:01;;;;;;;9.45;6.60;;;;;;;8.86;75.24;99272.42;1730549;82;27312;-64
2021/11/04 07:50:31;;;;;;;9.70;5.85;;;;;;;8.90;75.04;99277.39;1738538;82;25631;-64
2021/11/04 07:52:58;;;;;;;9.25;6.05;;;;;;;8.94;74.95;99271.04;1749050;82;25723;-64
2021/11/04 07:55:24;;;;;;;9.43;6.25;;;;;;;8.98;74.97;99264.44;1744095;81;25834;-63
2021/11/04 07:57:51;;;;;;;10.08;6.20;;;;;;;9.03;74.95;99268.87;1741190;82;25451;-63
2021/11/04 08:00:21;;;;;;;11.78;6.20;;;;;;;9.07;74.95;99263.84;1740907;82;27292;-65
2021/11/04 08:02:48;;;;;;;15.13;7.10;;;;;;;9.13;74.63;99260.42;1741000;82;25716;-64
2021/11/04 08:05:17;;;;;;;10.88;6.42;;;;;;;9.19;74.60;99248.31;1740934;82;25462;-63
2021/11/04 08:07:45;;;;;;;9.98;6.03;;;;;;;9.26;74.88;99243.22;1741037;82;25667;-63
2021/11/04 08:10:15;;;;;;;9.38;6.30;;;;;;;9.34;74.88;99246.98;1741165;82;25637;-63
2021/11/04 08:12:43;;;;;;;8.25;5.78;;;;;;;9.42;74.67;99239.39;1740922;82;27892;-63
2021/11/04 08:15:11;;;;;;;8.70;5.85;;;;;;;9.51;74.59;99247.44;1740817;82;25381;-63
2021/11/04 08:17:38;;;;;;;13.03;6.30;;;;;;;9.59;74.50;99235.02;1741105;82;25575;-63
2021/11/04 08:20:08;;;;;;;7.67;5.72;;;;;;;9.65;74.64;99226.94;1740913;82;25665;-63
2021/11/04 08:22:36;;;;;;;8.88;5.60;;;;;;;9.72;73.96;99216.39;1740818;82;25572;-65
2021/11/04 08:25:05;;;;;;;9.00;5.20;;;;;;;9.79;74.33;99208.58;1741078;82;27309;-64
2021/11/04 08:27:32;;;;;;;9.60;5.70;;;;;;;9.88;73.69;99212.56;1740890;82;25674;-64
2021/11/04 08:30:00;;;;;;;9.68;5.83;;;;;;;9.96;73.46;99209.00;1741070;82;25581;-64
2021/11/04 08:32:29;;;;;;;7.67;5.00;;;;;;;10.02;73.53;99192.80;1740957;82;25662;-64
2021/11/04 08:34:55;;;;;;;8.18;5.58;;;;;;;10.12;73.21;99194.88;1741200;82;25749;-64
2021/11/04 08:37:22;;;;;;;10.18;6.00;;;;;;;10.19;73.37;99199.95;1740880;82;27321;-63
2021/11/04 08:39:48;;;;;;;9.00;5.80;;;;;;;10.27;73.05;99186.14;1740810;82;25842;-65
2021/11/04 08:42:15;;;;;;;9.75;6.80;;;;;;;10.35;72.83;99180.44;1746727;80;25464;-65
2021/11/04 08:44:43;;;;;;;9.58;5.90;;;;;;;10.42;72.94;99177.42;1740397;82;25654;-65
2021/11/04 08:47:10;;;;;;;10.38;5.45;;;;;;;10.52;72.67;99188.92;1739917;82;25710;-64
2021/11/04 08:49:37;;;;;;;9.83;6.28;;;;;;;10.59;71.65;99183.20;1739678;82;27257;-64
2021/11/04 08:52:07;;;;;;;9.75;5.83;;;;;;;10.68;71.87;99187.16;1740505;82;26102;-65
2021/11/04 08:54:33;;;;;;;9.28;5.75;;;;;;;10.73;72.02;99178.82;1740761;82;25710;-62
2021/11/04 08:57:00;;;;;;;9.60;5.67;;;;;;;10.80;71.62;99169.58;1740880;82;25673;-63
2021/11/04 08:59:29;;;;;;;10.53;5.37;;;;;;;10.86;71.61;99172.05;1740901;82;25622;-64
2021/11/04 09:01:55;;;;;;;8.85;5.20;;;;;;;10.91;71.33;99182.08;1741038;82;27320;-64
2021/11/04 09:04:22;;;;;;;12.28;6.37;;;;;;;10.94;71.01;99184.69;1736037;80;26400;-64
2021/11/04 09:06:51;;;;;;;6.85;5.17;;;;;;;10.95;71.21;99180.30;1726848;82;25747;-64
2021/11/04 09:09:16;;;;;;;10.18;6.28;;;;;;;10.98;70.97;99170.70;1711383;83;25682;-64
2021/11/04 09:11:43;;;;;;;10.18;5.67;;;;;;;10.99;70.81;99175.77;1711509;83;25707;-64
2021/11/04 09:14:09;;;;;;;8.60;5.47;;;;;;;11.00;70.91;99158.42;1711347;83;27380;-63
2021/11/04 09:16:36;;;;;;;13.00;6.25;;;;;;;11.02;70.89;99164.85;1728339;82;25678;-64
2021/11/04 09:19:03;;;;;;;10.88;5.90;;;;;;;11.03;71.17;99166.41;1740434;82;25706;-64
2021/11/04 09:21:30;;;;;;;10.45;7.03;;;;;;;11.03;70.76;99159.10;1740837;82;25593;-63
2021/11/04 09:23:56;;;;;;;11.50;6.50;;;;;;;11.06;70.92;99171.73;1741121;82;25544;-67
2021/11/04 09:26:23;;;;;;;9.50;5.67;;;;;;;11.10;70.94;99164.49;1740918;82;27315;-67
2021/11/04 09:28:49;;;;;;;15.00;6.70;;;;;;;11.11;70.79;99159.31;1741022;82;25627;-67
2021/11/04 09:31:16;;;;;;;8.45;5.45;;;;;;;11.11;70.82;99160.09;1741251;82;25604;-65
2021/11/04 09:33:42;;;;;;;9.03;5.87;;;;;;;11.12;70.66;99150.08;1741232;82;25567;-66
2021/11/04 09:36:10;;;;;;;11.08;6.25;;;;;;;11.13;70.88;99142.17;1741172;82;25758;-65
2021/11/04 09:38:37;;;;;;;11.43;6.00;;;;;;;11.15;70.87;99137.20;1741096;82;28407;-65
2021/11/04 09:41:03;;;;;;;10.25;6.53;;;;;;;11.18;70.92;99138.66;1740966;82;25592;-67
2021/11/04 09:43:32;;;;;;;14.28;9.28;;;;;;;11.21;70.31;99129.86;1741138;82;25690;-65
2021/11/04 09:46:02;;;;;;;10.43;6.12;;;;;;;11.26;70.87;99123.43;1741141;82;25665;-66
2021/11/04 09:48:31;;;;;;;10.53;6.30;;;;;;;11.32;70.58;99113.14;1741195;82;25582;-66
2021/11/04 09:50:57;;;;;;;11.45;6.40;;;;;;;11.39;69.91;99111.45;1741101;82;27103;-66
2021/11/04 09:53:24;;;;;;;10.28;6.80;;;;;;;11.47;70.49;99108.94;1740949;82;25693;-66
2021/11/04 09:55:51;;;;;;;9.65;5.83;;;;;;;11.55;70.35;99099.89;1745366;82;25613;-66
2021/11/04 09:58:17;;;;;;;11.00;6.60;;;;;;;11.61;69.38;99088.23;1749880;81;25542;-66
2021/11/04 10:00:44;;;;;;;12.10;7.42;;;;;;;11.66;69.53;99085.28;1749791;82;25385;-66
2021/11/04 10:03:15;;;;;;;12.78;7.25;;;;;;;11.72;69.50;99081.20;1749851;81;27399;-66
2021/11/04 10:05:46;;;;;;;12.60;6.50;;;;;;;11.76;69.36;99082.07;1749770;82;25586;-66
2021/11/04 10:08:19;;;;;;;10.90;6.60;;;;;;;11.81;69.24;99078.33;1749615;81;25753;-65
2021/11/04 10:10:48;;;;;;;11.75;6.80;;;;;;;11.90;69.31;99081.66;1749853;82;25692;-66
2021/11/04 10:13:14;;;;;;;10.60;6.75;;;;;;;11.94;68.97;99069.04;1719811;82;25685;-66
2021/11/04 10:15:43;;;;;;;14.13;7.55;;;;;;;11.96;68.18;99071.61;1749888;82;27898;-65
2021/11/04 10:18:20;;;;;;;14.53;8.73;;;;;;;12.01;68.21;99064.37;1749834;82;25747;-65
2021/11/04 10:20:59;;;;;;;14.87;9.68;;;;;;;12.02;67.67;99045.05;1749778;82;25269;-66
2021/11/04 10:23:30;;;;;;;14.98;10.00;;;;;;;12.02;66.39;99041.54;1749947;82;25665;-65
2021/11/04 10:26:07;;;;;;;17.02;9.23;;;;;;;12.06;68.14;99041.08;1748129;82;25659;-66
2021/11/04 10:28:36;;;;;;;17.48;8.23;;;;;;;12.21;68.11;99044.91;1722372;82;27883;-67
2021/11/04 10:31:10;;;;;;;11.28;7.33;;;;;;;12.48;66.59;99046.75;1747311;82;25477;-65
2021/11/04 10:33:43;;;;;;;11.88;6.78;;;;;;;12.91;66.77;99021.14;1735174;80;25550;-66
2021/11/04 10:36:23;;;;;;;10.65;7.53;;;;;;;13.38;66.08;99032.41;1749398;82;26224;-66
2021/11/04 10:38:56;;;;;;;13.68;7.25;;;;;;;13.58;64.99;99022.30;1748949;82;25710;-64
2021/11/04 10:41:38;;;;;;;11.83;7.42;;;;;;;13.60;64.10;99013.23;1749497;82;27964;-66
2021/11/04 10:44:12;;;;;;;10.82;6.83;;;;;;;13.63;64.24;99023.94;1749041;82;25606;-65
2021/11/04 10:46:51;;;;;;;11.85;7.40;;;;;;;13.80;64.83;99026.19;1749694;82;25849;-66
2021/11/04 10:49:22;;;;;;;;;;;;;;;13.94;64.01;99021.56;1752170;82;25681;-66
2021/11/04 10:52:07;;;;;;;12.13;7.92;;;;;;;14.18;64.06;99018.27;1749457;82;25609;-66
2021/11/04 10:54:52;;;;;;;14.55;7.53;;;;;;;14.31;63.03;99001.97;1749396;82;27330;-66
2021/11/04 10:57:41;;;;;;;13.45;7.53;;;;;;;14.22;63.27;99004.73;1740960;81;25614;-65
2021/11/04 11:00:23;;;;;;;15.28;8.25;;;;;;;14.15;63.39;99014.36;1720650;82;25652;-66
2021/11/04 11:03:12;;;;;;;15.75;8.13;;;;;;;14.16;62.70;99002.90;1740648;82;25636;-65
2021/11/04 11:05:42;;;;;;;14.85;8.10;;;;;;;14.34;62.78;98989.59;1740751;82;25448;-65
2021/11/04 11:08:10;;;;;;;13.90;8.20;;;;;;;14.23;62.00;98990.77;1740712;82;27312;-65
2021/11/04 11:10:39;;;;;;;10.90;7.30;;;;;;;14.13;62.83;98996.27;1740908;82;26217;-66
2021/11/04 11:13:09;;;;;;;12.88;8.40;;;;;;;13.98;62.12;98988.45;1740537;82;25662;-66
2021/11/04 11:15:38;;;;;;;12.53;7.70;;;;;;;13.85;62.78;98983.56;1740782;82;26187;-66
2021/11/04 11:18:07;;;;;;;15.68;8.15;;;;;;;13.75;63.00;98989.02;1740913;82;26116;-65
2021/11/04 11:20:47;;;;;;;14.07;7.72;;;;;;;13.63;63.13;98991.33;1740883;82;27431;-68
2021/11/04 11:23:16;;;;;;;12.70;7.70;;;;;;;13.53;63.04;98984.55;1740916;82;25666;-68
2021/11/04 11:25:49;;;;;;;;;;;;;;;13.43;63.36;98967.48;1743375;82;25666;-67
2021/11/04 11:28:18;;;;;;;10.98;7.78;;;;;;;13.34;63.74;98964.23;1740691;82;25715;-66
2021/11/04 11:31:10;;;;;;;15.10;7.83;;;;;;;13.25;63.95;98958.41;1740632;82;25758;-66
2021/11/04 11:33:44;;;;;;;10.78;7.33;;;;;;;13.22;64.08;98967.85;1728520;82;27958;-67
2021/11/04 11:36:19;;;;;;;12.03;8.35;;;;;;;13.16;63.67;98948.36;1721238;82;25593;-67
2021/11/04 11:39:07;;;;;;;15.68;9.15;;;;;;;13.14;64.33;98960.71;1740822;82;25742;-67